Tasman Crusader — A8NQ7 — position and weather

sailwx.info

Track history (hours):
 
Tides and Currents Weather Stations Pressure Air Temp Water Temp Dewpoint Dewpoint Depression Visibility Wind Speed Wind Dir Waves Ship Positions

Tasman Crusader

Last reported at 2016-Apr-06 22:21 UTC. Time now 2016-May-02 08:17 UTC.
Position N 30°27' W 117°47'.
Warning: this ship's position is 25 days out of date.

Length 186 m; draft 8.2 m.

Type: Ship (hazmat cat D). MMSI: 636091434.

Date/timePositionNaut miles runAvg speedWind from/ knotsBaromVisibWave heightAir tempDewpointWater temp
2016-Apr-06 22:21N 30°27' W 117°47'4017.7
2016-Apr-06 20:06N 30°60' W 118°13'916.3
2016-Apr-06 19:33N 31°07' W 118°19'1515.5
2016-Apr-06 18:34N 31°19' W 118°30'1515.1
2016-Apr-06 17:33N 31°32' W 118°40'1914.8
2016-Apr-06 16:18N 31°47' W 118°53'1114.9
2016-Apr-06 15:33N 31°56' W 119°01'1515.0
2016-Apr-06 14:34N 32°08' W 119°11'1515.0
2016-Apr-06 13:33N 32°20' W 119°22'1515.2
2016-Apr-06 12:33N 32°32' W 119°32'1515.0
2016-Apr-06 11:33N 32°44' W 119°42'1714.8
2016-Apr-06 10:24N 32°58' W 119°54'1315.3
2016-Apr-06 09:33N 33°08' W 120°04'1615.1
2016-Apr-06 08:31N 33°21' W 120°15'1515.2
2016-Apr-06 07:33N 33°33' W 120°25'1515.0
2016-Apr-06 06:33N 33°45' W 120°36'3015.1
2016-Apr-06 04:33N 34°09' W 120°57'1515.4
2016-Apr-06 03:34N 34°22' W 121°08'1615.5
2016-Apr-06 02:33N 34°35' W 121°17'1515.1
2016-Apr-06 01:33N 34°49' W 121°25'1515.1
2016-Apr-06 00:33N 35°02' W 121°33'1515.5
2016-Apr-05 23:33N 35°16' W 121°42'1515.3
2016-Apr-05 22:33N 35°30' W 121°50'1515.0
2016-Apr-05 21:33N 35°44' W 121°58'1615.8
2016-Apr-05 20:33N 35°58' W 122°07'1615.8
2016-Apr-05 19:33N 36°12' W 122°15'1616.2
2016-Apr-05 18:33N 36°27' W 122°23'1616.1
2016-Apr-05 17:33N 36°42' W 122°30'1616.0
2016-Apr-05 16:34N 36°57' W 122°37'1616.3
2016-Apr-05 15:33N 37°12' W 122°44'1615.9
2016-Apr-05 14:33N 37°28' W 122°44'1515.3
2016-Apr-05 13:33N 37°43' W 122°41'1414.3
2016-Apr-05 12:33N 37°50' W 122°25'5 5.2
2016-Apr-05 11:33N 37°48' W 122°20'0 0.0
2016-Apr-05 10:33N 37°48' W 122°20'0 0.0
2016-Apr-05 09:33N 37°48' W 122°20'0 0.0
2016-Apr-05 08:33N 37°48' W 122°20'0 0.0
2016-Apr-05 07:33N 37°48' W 122°20'0 0.0
2016-Apr-05 06:33N 37°48' W 122°20'0 0.0
2016-Apr-05 05:33N 37°48' W 122°20'0 0.0
2016-Apr-05 04:33N 37°48' W 122°20'0 0.0
2016-Apr-05 03:33N 37°48' W 122°20'0 0.0
2016-Apr-05 02:33N 37°48' W 122°20'0 0.0
2016-Apr-05 01:33N 37°48' W 122°20'0 0.0
2016-Apr-05 00:33N 37°48' W 122°20'2 2.3
2016-Apr-04 23:33N 37°48' W 122°22'1211.6
2016-Apr-04 22:33N 37°46' W 122°37'7 7.2
2016-Apr-04 21:33N 37°40' W 122°40'7 6.7
2016-Apr-04 20:33N 37°33' W 122°40'9 8.9
2016-Apr-04 19:33N 37°24' W 122°40'9 9.1
2016-Apr-04 18:33N 37°15' W 122°40'9 8.7
2016-Apr-04 17:33N 37°06' W 122°38'9 9.0
2016-Apr-04 16:33N 36°58' W 122°34'9 9.3
2016-Apr-04 15:33N 36°49' W 122°30'39 9.1
2016-Apr-04 11:16N 36°13' W 122°11'7 9.3
2016-Apr-04 10:33N 36°07' W 122°07'9 9.4
2016-Apr-04 09:33N 35°59' W 122°01'9 9.1
2016-Apr-04 08:33N 35°52' W 121°55'9 9.3
2016-Apr-04 07:33N 35°44' W 121°49'9 9.3
2016-Apr-04 06:33N 35°36' W 121°43'9 9.3
2016-Apr-04 05:33N 35°28' W 121°37'9 9.3
2016-Apr-04 04:33N 35°20' W 121°31'9 9.4
2016-Apr-04 03:33N 35°12' W 121°25'13 9.4
2016-Apr-04 02:08N 35°00' W 121°17'5 9.2
2016-Apr-04 01:33N 34°56' W 121°14'9 9.2
2016-Apr-04 00:33N 34°48' W 121°08'12 9.3
2016-Apr-03 23:19N 34°38' W 121°00'5210.1
2016-Apr-03 18:12N 34°15' W 120°04'811.2
2016-Apr-03 17:29N 34°13' W 119°55'1211.2
2016-Apr-03 16:22N 34°10' W 119°40'911.2
2016-Apr-03 15:33N 34°08' W 119°30'1111.4
2016-Apr-03 14:33N 34°05' W 119°17'1211.7
2016-Apr-03 13:33N 33°59' W 119°04'1111.4
2016-Apr-03 12:33N 33°53' W 118°52'1111.5
2016-Apr-03 11:33N 33°48' W 118°40'1111.3
2016-Apr-03 10:33N 33°42' W 118°29'1110.6
2016-Apr-03 09:33N 33°38' W 118°17'7 7.2
2016-Apr-03 08:33N 33°45' W 118°13'1 1.3
2016-Apr-03 07:31N 33°46' W 118°14'0 0.0
2016-Apr-03 06:31N 33°46' W 118°14'0 0.0
2016-Apr-03 05:31N 33°46' W 118°14'0 0.0
2016-Apr-03 04:31N 33°46' W 118°14'0 0.0
2016-Apr-03 03:31N 33°46' W 118°14'0 0.0
2016-Apr-03 02:34N 33°46' W 118°14'0 0.0
2016-Apr-03 01:31N 33°46' W 118°14'0 0.0
2016-Apr-03 00:31N 33°46' W 118°14'0 0.0
2016-Apr-02 23:34N 33°46' W 118°14'0 0.0
2016-Apr-02 22:31N 33°46' W 118°14'0 0.0
2016-Apr-02 21:31N 33°46' W 118°14'0 0.0
2016-Apr-02 20:34N 33°46' W 118°14'0 0.0
2016-Apr-02 19:34N 33°46' W 118°14'0 0.0
2016-Apr-02 18:34N 33°46' W 118°14'0 0.0
2016-Apr-02 17:34N 33°46' W 118°14'0 0.0
2016-Apr-02 16:34N 33°46' W 118°14'0 0.0
2016-Apr-02 15:34N 33°46' W 118°14'0 0.0
2016-Apr-02 14:31N 33°46' W 118°14'0 0.0
2016-Apr-02 13:34N 33°46' W 118°14'0 0.0
2016-Apr-02 12:31N 33°46' W 118°14'0 0.0
2016-Apr-02 11:31N 33°46' W 118°14'0 0.0
2016-Apr-02 10:34N 33°46' W 118°14'0 0.0
2016-Apr-02 09:34N 33°46' W 118°14'0 0.0
2016-Apr-02 08:34N 33°46' W 118°14'0 0.0
2016-Apr-02 07:34N 33°46' W 118°14'0 0.0
2016-Apr-02 06:34N 33°46' W 118°14'0 0.0
2016-Apr-02 05:34N 33°46' W 118°14'0 0.0
2016-Apr-02 04:34N 33°46' W 118°14'0 0.0
2016-Apr-02 03:31N 33°46' W 118°14'0 0.0
2016-Apr-02 02:34N 33°46' W 118°14'0 0.0
2016-Apr-02 01:34N 33°46' W 118°14'0 0.0
2016-Apr-02 00:34N 33°46' W 118°14'0 0.0
2016-Apr-01 23:34N 33°46' W 118°14'0 0.0
2016-Apr-01 22:34N 33°46' W 118°14'0 0.0
2016-Apr-01 21:34N 33°46' W 118°14'0 0.0
2016-Apr-01 20:34N 33°46' W 118°14'2 1.8
2016-Apr-01 19:33N 33°45' W 118°13'7 6.5
2016-Apr-01 18:30N 33°38' W 118°13'12 9.6
2016-Apr-01 17:16N 33°39' W 118°28'48 2.5
2016-Mar-31 22:12N 34°09' W 119°12'0 0.0
2016-Mar-31 21:30N 34°09' W 119°12'64 2.2
2016-Mar-30 16:32N 33°33' W 118°08'1111.1
2016-Mar-30 15:33N 33°23' W 118°04'8 7.8
2016-Mar-30 14:34N 33°16' W 117°59'4 3.7
2016-Mar-30 13:34N 33°12' W 117°59'1111.3
2016-Mar-30 12:34N 33°02' W 117°55'1211.8
2016-Mar-30 11:34N 32°51' W 117°50'1313.1
2016-Mar-30 10:34N 32°38' W 117°45'1514.9
2016-Mar-30 09:34N 32°24' W 117°39'19115.2
2016-Mar-29 21:00N 29°24' W 116°24'   030 / 171017.0 5.4 1.517.011.5
Track history (hours):
 
Tides and Currents Weather Stations Pressure Air Temp Water Temp Dewpoint Dewpoint Depression Visibility Wind Speed Wind Dir Waves Ship Positions

Tasman Crusader

Last reported at 2016-Apr-06 22:21 UTC. Time now 2016-May-02 08:17 UTC.
Position N 30°27' W 117°47'.
Warning: this ship's position is 25 days out of date.

Length 186 m; draft 8.2 m.

Type: Ship (hazmat cat D). MMSI: 636091434.

Date/timePositionNaut miles runAvg speedWind from/ knotsBaromVisibWave heightAir tempDewpointWater temp
2016-Apr-06 22:21N 30°27' W 117°47'4017.7
2016-Apr-06 20:06N 30°60' W 118°13'916.3
2016-Apr-06 19:33N 31°07' W 118°19'1515.5
2016-Apr-06 18:34N 31°19' W 118°30'1515.1
2016-Apr-06 17:33N 31°32' W 118°40'1914.8
2016-Apr-06 16:18N 31°47' W 118°53'1114.9
2016-Apr-06 15:33N 31°56' W 119°01'1515.0
2016-Apr-06 14:34N 32°08' W 119°11'1515.0
2016-Apr-06 13:33N 32°20' W 119°22'1515.2
2016-Apr-06 12:33N 32°32' W 119°32'1515.0
2016-Apr-06 11:33N 32°44' W 119°42'1714.8
2016-Apr-06 10:24N 32°58' W 119°54'1315.3
2016-Apr-06 09:33N 33°08' W 120°04'1615.1
2016-Apr-06 08:31N 33°21' W 120°15'1515.2
2016-Apr-06 07:33N 33°33' W 120°25'1515.0
2016-Apr-06 06:33N 33°45' W 120°36'3015.1
2016-Apr-06 04:33N 34°09' W 120°57'1515.4
2016-Apr-06 03:34N 34°22' W 121°08'1615.5
2016-Apr-06 02:33N 34°35' W 121°17'1515.1
2016-Apr-06 01:33N 34°49' W 121°25'1515.1
2016-Apr-06 00:33N 35°02' W 121°33'1515.5
2016-Apr-05 23:33N 35°16' W 121°42'1515.3
2016-Apr-05 22:33N 35°30' W 121°50'1515.0
2016-Apr-05 21:33N 35°44' W 121°58'1615.8
2016-Apr-05 20:33N 35°58' W 122°07'1615.8
2016-Apr-05 19:33N 36°12' W 122°15'1616.2
2016-Apr-05 18:33N 36°27' W 122°23'1616.1
2016-Apr-05 17:33N 36°42' W 122°30'1616.0
2016-Apr-05 16:34N 36°57' W 122°37'1616.3
2016-Apr-05 15:33N 37°12' W 122°44'1615.9
2016-Apr-05 14:33N 37°28' W 122°44'1515.3
2016-Apr-05 13:33N 37°43' W 122°41'1414.3
2016-Apr-05 12:33N 37°50' W 122°25'5 5.2
2016-Apr-05 11:33N 37°48' W 122°20'0 0.0
2016-Apr-05 10:33N 37°48' W 122°20'0 0.0
2016-Apr-05 09:33N 37°48' W 122°20'0 0.0
2016-Apr-05 08:33N 37°48' W 122°20'0 0.0
2016-Apr-05 07:33N 37°48' W 122°20'0 0.0
2016-Apr-05 06:33N 37°48' W 122°20'0 0.0
2016-Apr-05 05:33N 37°48' W 122°20'0 0.0
2016-Apr-05 04:33N 37°48' W 122°20'0 0.0
2016-Apr-05 03:33N 37°48' W 122°20'0 0.0
2016-Apr-05 02:33N 37°48' W 122°20'0 0.0
2016-Apr-05 01:33N 37°48' W 122°20'0 0.0
2016-Apr-05 00:33N 37°48' W 122°20'2 2.3
2016-Apr-04 23:33N 37°48' W 122°22'1211.6
2016-Apr-04 22:33N 37°46' W 122°37'7 7.2
2016-Apr-04 21:33N 37°40' W 122°40'7 6.7
2016-Apr-04 20:33N 37°33' W 122°40'9 8.9
2016-Apr-04 19:33N 37°24' W 122°40'9 9.1
2016-Apr-04 18:33N 37°15' W 122°40'9 8.7
2016-Apr-04 17:33N 37°06' W 122°38'9 9.0
2016-Apr-04 16:33N 36°58' W 122°34'9 9.3
2016-Apr-04 15:33N 36°49' W 122°30'39 9.1
2016-Apr-04 11:16N 36°13' W 122°11'7 9.3
2016-Apr-04 10:33N 36°07' W 122°07'9 9.4
2016-Apr-04 09:33N 35°59' W 122°01'9 9.1
2016-Apr-04 08:33N 35°52' W 121°55'9 9.3
2016-Apr-04 07:33N 35°44' W 121°49'9 9.3
2016-Apr-04 06:33N 35°36' W 121°43'9 9.3
2016-Apr-04 05:33N 35°28' W 121°37'9 9.3
2016-Apr-04 04:33N 35°20' W 121°31'9 9.4
2016-Apr-04 03:33N 35°12' W 121°25'13 9.4
2016-Apr-04 02:08N 35°00' W 121°17'5 9.2
2016-Apr-04 01:33N 34°56' W 121°14'9 9.2
2016-Apr-04 00:33N 34°48' W 121°08'12 9.3
2016-Apr-03 23:19N 34°38' W 121°00'5210.1
2016-Apr-03 18:12N 34°15' W 120°04'811.2
2016-Apr-03 17:29N 34°13' W 119°55'1211.2
2016-Apr-03 16:22N 34°10' W 119°40'911.2
2016-Apr-03 15:33N 34°08' W 119°30'1111.4
2016-Apr-03 14:33N 34°05' W 119°17'1211.7
2016-Apr-03 13:33N 33°59' W 119°04'1111.4
2016-Apr-03 12:33N 33°53' W 118°52'1111.5
2016-Apr-03 11:33N 33°48' W 118°40'1111.3
2016-Apr-03 10:33N 33°42' W 118°29'1110.6
2016-Apr-03 09:33N 33°38' W 118°17'7 7.2
2016-Apr-03 08:33N 33°45' W 118°13'1 1.3
2016-Apr-03 07:31N 33°46' W 118°14'0 0.0
2016-Apr-03 06:31N 33°46' W 118°14'0 0.0
2016-Apr-03 05:31N 33°46' W 118°14'0 0.0
2016-Apr-03 04:31N 33°46' W 118°14'0 0.0
2016-Apr-03 03:31N 33°46' W 118°14'0 0.0
2016-Apr-03 02:34N 33°46' W 118°14'0 0.0
2016-Apr-03 01:31N 33°46' W 118°14'0 0.0
2016-Apr-03 00:31N 33°46' W 118°14'0 0.0
2016-Apr-02 23:34N 33°46' W 118°14'0 0.0
2016-Apr-02 22:31N 33°46' W 118°14'0 0.0
2016-Apr-02 21:31N 33°46' W 118°14'0 0.0
2016-Apr-02 20:34N 33°46' W 118°14'0 0.0
2016-Apr-02 19:34N 33°46' W 118°14'0 0.0
2016-Apr-02 18:34N 33°46' W 118°14'0 0.0
2016-Apr-02 17:34N 33°46' W 118°14'0 0.0
2016-Apr-02 16:34N 33°46' W 118°14'0 0.0
2016-Apr-02 15:34N 33°46' W 118°14'0 0.0
2016-Apr-02 14:31N 33°46' W 118°14'0 0.0
2016-Apr-02 13:34N 33°46' W 118°14'0 0.0
2016-Apr-02 12:31N 33°46' W 118°14'0 0.0
2016-Apr-02 11:31N 33°46' W 118°14'0 0.0
2016-Apr-02 10:34N 33°46' W 118°14'0 0.0
2016-Apr-02 09:34N 33°46' W 118°14'0 0.0
2016-Apr-02 08:34N 33°46' W 118°14'0 0.0
2016-Apr-02 07:34N 33°46' W 118°14'0 0.0
2016-Apr-02 06:34N 33°46' W 118°14'0 0.0
2016-Apr-02 05:34N 33°46' W 118°14'0 0.0
2016-Apr-02 04:34N 33°46' W 118°14'0 0.0
2016-Apr-02 03:31N 33°46' W 118°14'0 0.0
2016-Apr-02 02:34N 33°46' W 118°14'0 0.0
2016-Apr-02 01:34N 33°46' W 118°14'0 0.0
2016-Apr-02 00:34N 33°46' W 118°14'0 0.0
2016-Apr-01 23:34N 33°46' W 118°14'0 0.0
2016-Apr-01 22:34N 33°46' W 118°14'0 0.0
2016-Apr-01 21:34N 33°46' W 118°14'0 0.0
2016-Apr-01 20:34N 33°46' W 118°14'2 1.8
2016-Apr-01 19:33N 33°45' W 118°13'7 6.5
2016-Apr-01 18:30N 33°38' W 118°13'12 9.6
2016-Apr-01 17:16N 33°39' W 118°28'48 2.5
2016-Mar-31 22:12N 34°09' W 119°12'0 0.0
2016-Mar-31 21:30N 34°09' W 119°12'64 2.2
2016-Mar-30 16:32N 33°33' W 118°08'1111.1
2016-Mar-30 15:33N 33°23' W 118°04'8 7.8
2016-Mar-30 14:34N 33°16' W 117°59'4 3.7
2016-Mar-30 13:34N 33°12' W 117°59'1111.3
2016-Mar-30 12:34N 33°02' W 117°55'1211.8
2016-Mar-30 11:34N 32°51' W 117°50'1313.1
2016-Mar-30 10:34N 32°38' W 117°45'1514.9
2016-Mar-30 09:34N 32°24' W 117°39'19115.2
2016-Mar-29 21:00N 29°24' W 116°24'   030 / 171017.0 5.4 1.517.011.5

Dump ship's entire track history